Time;durP1;ratioP1;P1;durP2;ratioP2;P2;SDS_P1;SDS_P2;PMS_P1;PMS_P2;Temp;Humidity;BMP_temperature;BMP_pressure;BME280_temperature;BME280_humidity;BME280_pressure;Samples;Min_cycle;Max_cycle;Signal;HPM_P1;HPM_P2
2023/10/14 00:02:01;;;;;;;27.48;7.75;;;;;;;17.43;64.32;101118.84;5050337;28;20493;-78
2023/10/14 00:04:29;;;;;;;31.50;9.13;;;;;;;17.58;64.31;101140.97;5050414;28;20108;-78
2023/10/14 00:06:57;;;;;;;29.13;9.15;;;;;;;17.53;64.61;101141.38;5050529;28;20445;-78
2023/10/14 00:09:24;;;;;;;55.40;9.75;;;;;;;17.50;65.00;101149.00;5050560;28;20028;-78
2023/10/14 00:11:54;;;;;;;41.70;9.55;;;;;;;17.32;65.08;101109.09;4999329;28;20040;-78
2023/10/14 00:14:22;;;;;;;44.92;9.70;;;;;;;17.39;65.27;101114.75;5031355;28;20041;-78
2023/10/14 00:16:54;;;;;;;37.20;9.90;;;;;;;17.42;64.95;101115.28;5050510;28;20025;-79
2023/10/14 00:19:21;;;;;;;51.17;11.37;;;;;;;17.50;65.34;101129.97;5050191;28;20033;-78
2023/10/14 00:21:50;;;;;;;45.15;11.20;;;;;;;17.53;65.20;101137.78;5049977;28;20024;-78
2023/10/14 00:24:26;;;;;;;32.00;9.88;;;;;;;17.47;65.49;101133.00;5050322;28;20021;-79
2023/10/14 00:26:55;;;;;;;48.75;11.60;;;;;;;17.43;65.62;101121.56;5050490;28;20040;-79
2023/10/14 00:29:21;;;;;;;40.92;11.45;;;;;;;17.40;65.68;101119.16;5050307;28;20025;-77
2023/10/14 00:31:51;;;;;;;50.47;12.13;;;;;;;17.30;65.74;101100.25;5049879;28;20465;-79
2023/10/14 00:34:22;;;;;;;49.30;10.90;;;;;;;17.46;65.65;101109.53;5050124;28;20029;-77
2023/10/14 00:36:49;;;;;;;38.33;11.55;;;;;;;17.42;65.72;101115.28;5049897;28;20059;-77
2023/10/14 00:39:23;;;;;;;45.53;12.05;;;;;;;17.46;65.89;101114.97;5049189;28;20029;-78
2023/10/14 00:41:50;;;;;;;49.83;10.70;;;;;;;17.24;65.95;101079.13;5049583;28;20403;-78
2023/10/14 00:44:16;;;;;;;45.88;11.85;;;;;;;17.32;65.97;101103.63;5049833;28;20052;-78
2023/10/14 00:46:48;;;;;;;37.55;10.25;;;;;;;17.34;65.82;101096.16;5049866;28;20068;-77
2023/10/14 00:49:15;;;;;;;29.08;9.82;;;;;;;17.28;65.76;101091.38;5049622;28;20480;-77
2023/10/14 00:51:44;;;;;;;47.10;9.15;;;;;;;17.06;66.02;101059.25;5052467;28;20472;-78
2023/10/14 00:54:12;;;;;;;26.58;9.90;;;;;;;17.11;66.36;101094.94;5053916;28;20086;-78
2023/10/14 00:56:42;;;;;;;28.83;11.55;;;;;;;17.03;66.84;101092.13;5053653;28;20031;-78
2023/10/14 00:59:09;;;;;;;39.35;12.75;;;;;;;17.02;67.11;101085.00;5054049;28;20031;-78
2023/10/14 01:04:19;;;;;;;28.80;10.70;;;;;;;17.12;67.25;101079.50;5053593;28;20104;-78
2023/10/14 01:09:48;;;;;;;41.55;11.75;;;;;;;16.81;67.38;101054.59;5053735;28;20032;-78
2023/10/14 01:12:38;;;;;;;33.58;12.55;;;;;;;16.97;67.54;101081.88;5053420;28;20032;-77
2023/10/14 01:17:58;;;;;;;38.55;13.57;;;;;;;17.00;67.10;101081.56;4972100;28;20065;-77
2023/10/14 01:23:00;;;;;;;41.78;13.70;;;;;;;16.97;66.75;101079.16;4971598;28;20134;-79
2023/10/14 01:25:30;;;;;;;27.80;12.00;;;;;;;16.99;66.54;101079.91;4971883;28;20594;-78
2023/10/14 01:27:59;;;;;;;28.02;11.35;;;;;;;17.04;66.23;101072.13;4923306;28;20518;-78
2023/10/14 01:30:33;;;;;;;48.15;13.63;;;;;;;16.98;66.04;101071.88;4963727;28;20047;-77
2023/10/14 01:35:53;;;;;;;46.45;12.32;;;;;;;16.96;66.28;101080.19;4952493;29;20047;-77
2023/10/14 01:38:18;;;;;;;37.38;11.30;;;;;;;16.88;66.35;101063.81;4952735;29;20062;-77
2023/10/14 01:40:48;;;;;;;31.45;11.07;;;;;;;16.78;66.41;101060.31;4952303;29;20463;-77
2023/10/14 01:43:15;;;;;;;35.78;10.70;;;;;;;16.87;66.65;101075.69;4952373;29;20024;-77
2023/10/14 01:45:50;;;;;;;48.75;11.70;;;;;;;16.45;66.67;101001.22;4952329;29;20551;-77
2023/10/14 01:48:21;;;;;;;51.88;11.45;;;;;;;16.84;66.39;101067.84;4952464;29;20130;-77
2023/10/14 01:50:55;;;;;;;35.65;11.18;;;;;;;16.86;66.28;101063.09;4951966;29;20023;-76
2023/10/14 01:53:23;;;;;;;19.83;9.23;;;;;;;16.83;66.29;101049.84;4955877;28;20159;-77
2023/10/14 01:55:52;;;;;;;27.90;9.80;;;;;;;16.78;66.42;101054.88;5010348;28;20032;-77
2023/10/14 01:58:22;;;;;;;41.65;11.10;;;;;;;16.80;66.53;101061.00;5010211;28;20037;-78
2023/10/14 02:00:53;;;;;;;45.13;10.13;;;;;;;16.84;66.05;101060.56;5010064;28;20156;-77
2023/10/14 02:03:23;;;;;;;30.33;10.63;;;;;;;16.83;65.94;101049.84;5010113;28;20073;-77
2023/10/14 02:05:52;;;;;;;35.72;9.10;;;;;;;16.83;65.93;101058.00;5010311;28;20046;-76
2023/10/14 02:08:21;;;;;;;31.92;11.85;;;;;;;16.76;66.24;101051.44;5010207;28;20034;-77
2023/10/14 02:10:47;;;;;;;32.33;9.50;;;;;;;16.80;66.08;101048.28;5009815;28;20576;-78
2023/10/14 02:13:18;;;;;;;34.60;10.73;;;;;;;16.80;65.92;101053.72;5029607;28;20117;-78
2023/10/14 02:15:47;;;;;;;31.08;10.88;;;;;;;16.81;66.02;101060.00;5032323;28;20075;-77
2023/10/14 02:18:23;;;;;;;42.53;10.75;;;;;;;16.78;66.05;101060.31;5032030;28;20033;-78
2023/10/14 02:23:45;;;;;;;40.28;12.82;;;;;;;16.58;66.93;101058.72;4970995;28;20049;-77
2023/10/14 02:29:15;;;;;;;31.70;13.00;;;;;;;16.70;66.49;101066.50;4913050;29;20476;-77
2023/10/14 02:31:43;;;;;;;31.25;11.43;;;;;;;16.63;66.51;101062.72;4912883;29;20056;-77
2023/10/14 02:34:09;;;;;;;27.77;10.30;;;;;;;16.52;66.72;101034.88;4913664;29;20085;-77
2023/10/14 02:36:36;;;;;;;30.55;11.07;;;;;;;16.67;66.84;101064.09;4913323;29;20044;-77
2023/10/14 02:39:14;;;;;;;31.67;10.32;;;;;;;16.70;66.48;101071.09;4913333;29;20048;-77
2023/10/14 02:41:43;;;;;;;42.85;11.25;;;;;;;16.70;66.55;101065.66;4913099;29;20070;-77
2023/10/14 02:46:42;;;;;;;46.10;12.13;;;;;;;16.70;66.65;101057.50;4913025;29;20171;-77
2023/10/14 02:49:09;;;;;;;44.13;12.43;;;;;;;16.72;66.55;101059.09;4913135;29;20103;-77
2023/10/14 02:54:04;;;;;;;47.05;11.68;;;;;;;16.68;66.61;101054.09;4913034;29;20047;-79
2023/10/14 02:56:33;;;;;;;43.53;10.68;;;;;;;16.76;66.71;101067.75;4912959;29;20032;-76
2023/10/14 02:58:59;;;;;;;25.63;9.43;;;;;;;16.69;66.69;101050.38;4914074;28;20059;-76
2023/10/14 03:01:31;;;;;;;35.08;10.70;;;;;;;16.51;66.91;101015.00;4989739;28;20030;-77
2023/10/14 03:03:57;;;;;;;32.05;10.48;;;;;;;16.62;67.02;101039.28;4989515;28;20511;-77
2023/10/14 03:06:23;;;;;;;35.13;10.38;;;;;;;16.61;67.14;101047.56;5039932;28;20036;-77
2023/10/14 03:08:57;;;;;;;31.33;11.30;;;;;;;16.70;67.23;101054.78;5051494;28;20052;-76
2023/10/14 03:11:25;;;;;;;44.20;10.57;;;;;;;16.52;67.24;101046.59;5050664;28;20127;-77
2023/10/14 03:13:51;;;;;;;42.88;11.82;;;;;;;16.70;67.30;101060.22;5050775;28;20036;-77
2023/10/14 03:16:17;;;;;;;41.90;11.27;;;;;;;16.68;67.42;101060.38;5015905;28;20040;-76
2023/10/14 03:18:44;;;;;;;29.45;9.80;;;;;;;16.61;67.47;101051.13;5051436;28;20128;-77
2023/10/14 03:21:10;;;;;;;28.15;10.95;;;;;;;16.51;67.53;101046.75;5050723;28;20459;-77
2023/10/14 03:23:35;;;;;;;41.85;12.90;;;;;;;16.51;68.07;101053.00;5051029;28;20041;-77
2023/10/14 03:28:34;;;;;;;56.20;22.05;;;;;;;16.50;67.67;101055.91;5050975;28;20029;-77
2023/10/14 03:31:00;;;;;;;44.35;14.55;;;;;;;16.45;67.61;101036.50;5050627;28;20114;-77
2023/10/14 03:33:32;;;;;;;54.08;13.32;;;;;;;16.53;67.67;101055.59;5050800;28;20033;-78
2023/10/14 03:36:05;;;;;;;51.10;13.68;;;;;;;16.51;67.58;101050.31;5050525;28;20047;-77
2023/10/14 03:41:20;;;;;;;48.97;13.85;;;;;;;16.38;67.93;101059.84;5050556;28;20445;-77
2023/10/14 03:46:30;;;;;;;35.53;12.75;;;;;;;16.33;68.36;101043.97;5050240;28;20115;-77
2023/10/14 03:48:56;;;;;;;31.10;12.93;;;;;;;16.35;68.80;101050.13;5050435;28;20155;-77
2023/10/14 03:51:25;;;;;;;51.45;17.15;;;;;;;16.24;68.80;101045.75;5014878;28;20120;-77
2023/10/14 03:53:54;;;;;;;40.42;16.33;;;;;;;16.30;69.13;101052.44;5050761;28;20175;-77
2023/10/14 03:56:25;;;;;;;52.85;17.38;;;;;;;16.22;68.57;101031.50;5050712;28;20108;-77
2023/10/14 03:58:55;;;;;;;43.85;15.10;;;;;;;16.32;68.06;101032.28;5050550;28;20025;-76
2023/10/14 04:01:29;;;;;;;54.63;16.45;;;;;;;16.36;68.46;101038.25;5049895;28;20378;-78
2023/10/14 04:03:55;;;;;;;45.47;15.57;;;;;;;16.31;68.35;101044.16;5050297;28;20045;-78
2023/10/14 04:06:21;;;;;;;64.30;16.88;;;;;;;16.32;68.54;101032.28;5050332;28;20060;-77
2023/10/14 04:08:49;;;;;;;66.07;18.95;;;;;;;16.32;68.64;101040.44;5049949;28;20056;-77
2023/10/14 04:11:25;;;;;;;49.13;16.42;;;;;;;16.26;69.16;101038.34;5050357;28;20126;-77
2023/10/14 04:14:04;;;;;;;73.80;18.20;;;;;;;16.19;69.25;101020.06;5049831;28;20033;-77
2023/10/14 04:16:47;;;;;;;60.20;15.75;;;;;;;16.24;69.54;101026.75;5050011;28;20028;-78
2023/10/14 04:21:53;;;;;;;55.22;15.98;;;;;;;16.24;69.73;101032.19;5049883;28;20436;-78
2023/10/14 04:26:48;;;;;;;51.90;16.25;;;;;;;16.29;70.08;101048.88;5049451;28;20041;-78
2023/10/14 04:29:34;;;;;;;48.28;18.27;;;;;;;16.24;69.44;101043.03;5049500;28;20428;-78
2023/10/14 04:32:11;;;;;;;54.03;17.92;;;;;;;16.31;69.24;101049.59;5049402;28;20098;-78
2023/10/14 04:34:36;;;;;;;70.75;23.92;;;;;;;16.25;68.60;101047.47;5049555;28;20075;-77
2023/10/14 04:37:07;;;;;;;75.03;21.75;;;;;;;16.23;68.47;101049.50;5050144;28;20044;-78
2023/10/14 04:39:42;;;;;;;89.30;24.60;;;;;;;16.24;68.36;101044.88;5050015;28;20025;-77
2023/10/14 04:44:54;;;;;;;45.85;21.33;;;;;;;16.28;67.36;101047.16;5049901;28;20025;-79
2023/10/14 04:47:25;;;;;;;54.33;21.75;;;;;;;16.35;67.45;101061.00;5049640;28;20095;-77
2023/10/14 04:49:52;;;;;;;55.72;20.23;;;;;;;16.24;67.41;101043.03;5049531;28;20048;-78
2023/10/14 04:52:22;;;;;;;72.22;22.00;;;;;;;16.23;67.84;101049.50;5031394;28;20040;-77
2023/10/14 04:54:54;;;;;;;55.92;22.23;;;;;;;16.40;67.89;101064.09;5049588;28;20021;-78
2023/10/14 04:57:21;;;;;;;;;;;;;;;16.41;67.84;101068.53;5049808;28;20036;-78
2023/10/14 04:59:53;;;;;;;61.78;17.25;;;;;;;16.42;68.12;101069.38;5049607;28;20372;-77
2023/10/14 05:02:24;;;;;;;47.50;17.02;;;;;;;16.28;68.52;101040.88;5049329;28;20025;-77
2023/10/14 05:04:53;;;;;;;54.08;17.52;;;;;;;16.49;68.40;101070.47;5014483;28;20041;-78
2023/10/14 05:07:21;;;;;;;55.75;18.05;;;;;;;16.54;67.95;101073.59;5049622;28;20207;-78
2023/10/14 05:09:56;;;;;;;71.00;19.30;;;;;;;16.61;67.85;101069.28;5049689;28;20044;-77
2023/10/14 05:12:25;;;;;;;47.15;16.90;;;;;;;16.47;68.19;101045.34;5049264;28;20048;-77
2023/10/14 05:14:52;;;;;;;47.65;18.02;;;;;;;16.65;67.86;101070.69;5049645;28;20025;-77
2023/10/14 05:17:25;;;;;;;51.00;17.45;;;;;;;16.67;67.85;101074.97;5049048;28;20504;-77
2023/10/14 05:19:55;;;;;;;66.00;18.13;;;;;;;16.70;67.97;101081.94;5031335;28;20062;-76
2023/10/14 05:22:23;;;;;;;49.78;16.50;;;;;;;16.70;67.66;101055.66;5049088;28;20033;-77
2023/10/14 05:24:52;;;;;;;70.07;17.58;;;;;;;16.86;67.92;101069.41;5049316;28;20041;-77
2023/10/14 05:27:19;;;;;;;56.38;16.88;;;;;;;16.92;67.89;101072.50;5049246;28;20032;-78
2023/10/14 05:29:51;;;;;;;76.20;16.35;;;;;;;17.02;67.83;101068.72;5049378;28;20125;-77
2023/10/14 05:32:30;;;;;;;52.22;16.73;;;;;;;17.08;67.80;101064.50;5049970;28;20499;-78
2023/10/14 05:34:59;;;;;;;66.80;18.67;;;;;;;17.03;67.91;101054.09;5049106;28;20029;-77
2023/10/14 05:37:25;;;;;;;82.20;25.08;;;;;;;17.00;67.97;101034.56;5051223;28;20029;-77
2023/10/14 05:39:54;;;;;;;99.28;33.67;;;;;;;17.24;67.70;101064.66;5053451;28;20094;-77
2023/10/14 05:42:24;;;;;;;81.90;32.67;;;;;;;17.31;67.51;101079.31;5053317;28;20139;-78
2023/10/14 05:44:57;;;;;;;80.63;34.95;;;;;;;17.34;67.23;101074.41;5052910;28;20108;-77
2023/10/14 05:47:27;;;;;;;82.35;37.25;;;;;;;17.35;67.03;101075.28;5052843;28;20025;-77
2023/10/14 05:49:53;;;;;;;86.55;39.08;;;;;;;17.42;66.62;101081.81;5052776;28;20116;-77
2023/10/14 05:52:23;;;;;;;87.63;44.72;;;;;;;17.39;66.32;101065.81;5052118;28;20104;-81
2023/10/14 05:54:49;;;;;;;90.65;44.13;;;;;;;17.47;65.39;101073.16;5052629;28;20056;-76
2023/10/14 05:57:17;;;;;;;90.78;44.88;;;;;;;17.55;65.02;101076.81;5052881;28;20037;-78
2023/10/14 05:59:43;;;;;;;96.82;44.95;;;;;;;17.37;65.13;101054.22;5052533;28;20473;-78
2023/10/14 06:02:12;;;;;;;119.82;46.53;;;;;;;17.57;65.09;101077.53;5052549;28;20083;-78
2023/10/14 06:04:41;;;;;;;93.22;43.10;;;;;;;17.65;65.16;101082.16;5052673;28;20094;-78
2023/10/14 06:07:08;;;;;;;119.72;44.65;;;;;;;17.81;65.03;101090.44;5052632;28;20120;-76
2023/10/14 06:09:37;;;;;;;92.50;41.42;;;;;;;17.86;65.05;101079.91;5052292;28;20128;-78
2023/10/14 06:12:12;;;;;;;81.22;40.90;;;;;;;17.90;64.97;101075.88;5052680;28;20025;-76
2023/10/14 06:14:38;;;;;;;82.45;37.10;;;;;;;18.04;64.78;101093.50;5052521;28;20072;-77
2023/10/14 06:17:04;;;;;;;81.38;37.33;;;;;;;18.13;64.88;101098.81;5052087;28;20646;-78
2023/10/14 06:19:30;;;;;;;74.18;38.20;;;;;;;18.26;64.85;101091.03;5052085;28;20025;-77
2023/10/14 06:21:56;;;;;;;90.53;37.05;;;;;;;18.31;64.73;101085.13;5052464;28;20021;-76
2023/10/14 06:24:23;;;;;;;80.90;36.33;;;;;;;18.42;64.60;101080.22;5052416;28;20036;-77
2023/10/14 06:26:48;;;;;;;87.32;34.28;;;;;;;18.59;64.38;101088.50;5052299;28;20021;-77
2023/10/14 06:29:14;;;;;;;100.63;36.92;;;;;;;18.42;64.33;101042.09;5052028;28;20021;-77
2023/10/14 06:31:40;;;;;;;94.57;35.15;;;;;;;18.78;64.38;101088.19;5051903;28;20061;-77
2023/10/14 06:34:09;;;;;;;67.63;32.30;;;;;;;18.89;64.30;101085.16;5052135;28;20107;-77
2023/10/14 06:36:35;;;;;;;66.47;29.05;;;;;;;18.96;64.44;101080.72;5051915;28;20033;-75
2023/10/14 06:39:13;;;;;;;69.57;27.45;;;;;;;19.10;64.31;101077.34;5052473;28;20029;-76
2023/10/14 06:41:43;;;;;;;62.85;26.35;;;;;;;19.17;64.58;101072.94;5051297;28;20035;-80
2023/10/14 06:44:14;;;;;;;92.47;30.30;;;;;;;19.32;64.38;101081.28;5051751;28;20033;-77
2023/10/14 06:46:46;;;;;;;62.33;23.03;;;;;;;19.28;64.66;101056.22;5051350;28;20040;-75
2023/10/14 06:49:16;;;;;;;56.30;21.38;;;;;;;19.52;65.25;101074.50;5050532;28;20040;-77
2023/10/14 06:51:42;;;;;;;62.85;22.65;;;;;;;19.55;65.25;101066.81;5051105;28;20082;-78
2023/10/14 06:54:14;;;;;;;57.47;23.65;;;;;;;19.63;65.44;101073.31;5050839;28;20055;-77
2023/10/14 06:56:40;;;;;;;52.30;25.95;;;;;;;19.69;65.54;101078.06;5051302;28;20025;-77
2023/10/14 06:59:06;;;;;;;65.68;22.83;;;;;;;19.66;66.30;101059.31;5051285;28;20431;-76
2023/10/14 07:01:33;;;;;;;57.50;22.13;;;;;;;19.70;66.66;101057.91;5050732;28;20554;-80
2023/10/14 07:03:59;;;;;;;53.17;21.50;;;;;;;19.84;68.26;101070.88;5051117;28;20029;-79
2023/10/14 07:06:26;;;;;;;51.90;21.48;;;;;;;19.92;68.82;101062.66;5050986;28;20090;-76
2023/10/14 07:08:52;;;;;;;54.50;19.77;;;;;;;19.98;69.32;101056.50;5050575;28;20053;-76
2023/10/14 07:11:17;;;;;;;50.65;20.75;;;;;;;20.03;70.95;101065.84;5050672;28;20480;-74
2023/10/14 07:13:43;;;;;;;65.78;21.95;;;;;;;20.20;71.11;101066.66;5050597;28;20104;-74
2023/10/14 07:16:08;;;;;;;59.80;20.25;;;;;;;20.17;69.83;101039.72;5050940;28;20100;-74
2023/10/14 07:18:37;;;;;;;28.48;12.75;;;;;;;20.31;72.92;101069.03;5033046;28;20056;-74
2023/10/14 07:21:03;;;;;;;44.60;14.77;;;;;;;20.36;74.09;101060.31;5050220;28;20063;-75
2023/10/14 07:23:34;;;;;;;43.58;10.93;;;;;;;20.34;75.56;101054.16;5050174;28;20036;-75
2023/10/14 07:26:11;;;;;;;37.42;11.02;;;;;;;20.47;76.04;101063.50;5049707;28;20467;-75
2023/10/14 07:28:42;;;;;;;32.47;9.80;;;;;;;20.36;76.43;101038.47;5050422;28;20044;-75
2023/10/14 07:31:12;;;;;;;31.15;9.88;;;;;;;20.56;76.73;101059.69;5050011;28;20556;-74
2023/10/14 07:33:39;;;;;;;40.05;10.45;;;;;;;20.58;76.69;101049.44;5050961;28;20516;-78
2023/10/14 07:36:06;;;;;;;22.50;12.90;;;;;;;20.68;76.97;101059.28;5047186;28;20121;-77
2023/10/14 07:38:35;;;;;;;44.33;9.63;;;;;;;20.74;77.16;101053.09;5051089;28;20079;-78
2023/10/14 07:41:01;;;;;;;39.58;10.95;;;;;;;20.83;77.06;101052.00;5033043;28;20036;-75
2023/10/14 07:43:27;;;;;;;27.27;10.45;;;;;;;20.88;77.31;101044.16;5050276;28;20021;-78
2023/10/14 07:45:53;;;;;;;27.50;10.73;;;;;;;20.89;77.37;101054.03;5050758;28;20101;-78
2023/10/14 07:48:19;;;;;;;28.58;12.05;;;;;;;20.81;77.10;101044.00;5032653;28;20470;-77
2023/10/14 07:50:46;;;;;;;28.00;9.30;;;;;;;20.89;77.56;101054.88;5050976;28;20053;-77
2023/10/14 07:53:13;;;;;;;22.48;11.30;;;;;;;21.01;77.52;101058.03;5050205;28;20056;-78
2023/10/14 07:55:48;;;;;;;31.95;11.75;;;;;;;21.03;77.56;101058.75;5050112;28;20048;-79
2023/10/14 07:58:16;;;;;;;38.63;10.85;;;;;;;21.04;77.18;101033.06;5050576;28;20032;-76
2023/10/14 08:00:48;;;;;;;34.42;10.23;;;;;;;21.23;76.80;101038.06;5049585;28;20033;-77
2023/10/14 08:03:18;;;;;;;25.30;9.95;;;;;;;21.40;75.85;101053.34;5049716;28;20037;-76
2023/10/14 08:05:49;;;;;;;30.30;10.85;;;;;;;21.38;75.32;101054.53;5050085;28;20037;-77
2023/10/14 08:08:16;;;;;;;19.50;9.90;;;;;;;21.41;75.63;101060.50;5048419;28;20040;-79
2023/10/14 08:10:45;;;;;;;17.70;8.32;;;;;;;21.46;75.37;101060.81;5050492;28;20107;-77
2023/10/14 08:13:12;;;;;;;38.30;9.25;;;;;;;21.32;75.24;101022.44;5050349;28;20029;-78
2023/10/14 08:15:37;;;;;;;16.88;7.45;;;;;;;21.51;75.03;101031.00;5016718;28;20025;-76
2023/10/14 08:18:07;;;;;;;36.10;9.25;;;;;;;21.79;74.91;101055.00;5050296;28;20159;-78
2023/10/14 08:20:33;;;;;;;32.83;8.68;;;;;;;21.89;74.77;101050.16;5050581;28;20025;-76
2023/10/14 08:22:59;;;;;;;23.85;6.90;;;;;;;21.88;74.26;101051.16;5049662;28;20060;-78
2023/10/14 08:25:30;;;;;;;33.20;7.80;;;;;;;21.96;74.08;101049.19;5032176;28;20115;-77
2023/10/14 08:27:57;;;;;;;24.00;8.27;;;;;;;21.95;73.74;101028.34;5049117;28;20449;-77
2023/10/14 08:30:24;;;;;;;33.20;8.70;;;;;;;22.29;73.56;101049.69;5049442;28;20072;-77
2023/10/14 08:32:52;;;;;;;39.22;8.13;;;;;;;22.44;73.24;101057.88;5049451;28;20567;-76
2023/10/14 08:35:19;;;;;;;30.42;7.25;;;;;;;22.48;72.54;101046.31;5049673;28;20028;-76
2023/10/14 08:37:51;;;;;;;32.55;6.63;;;;;;;22.29;72.43;101024.16;5049543;28;20029;-76
2023/10/14 08:40:21;;;;;;;;;;;;;;;22.35;72.98;101050.81;5050333;28;20040;-76
2023/10/14 08:42:51;;;;;;;20.20;6.95;;;;;;;21.88;73.99;100967.13;5050907;28;19917;-77
2023/10/14 08:45:20;;;;;;;19.00;6.88;;;;;;;22.36;73.99;101041.50;5069569;28;20029;-77
2023/10/14 08:47:52;;;;;;;19.88;6.90;;;;;;;22.22;74.28;101030.41;5069696;28;20089;-76
2023/10/14 08:50:25;;;;;;;17.77;6.15;;;;;;;22.37;73.83;101043.22;5069748;28;20028;-76
2023/10/14 08:52:56;;;;;;;13.70;6.35;;;;;;;22.19;73.85;101036.25;5069485;28;20020;-75
2023/10/14 08:55:22;;;;;;;18.00;6.18;;;;;;;22.23;73.74;101036.75;5069813;28;20032;-75
2023/10/14 08:57:49;;;;;;;27.58;7.05;;;;;;;21.93;75.29;101030.41;5069383;28;20024;-78
2023/10/14 09:00:19;;;;;;;14.15;5.90;;;;;;;22.05;74.88;101036.25;5068598;28;20029;-77
2023/10/14 09:02:46;;;;;;;26.40;7.00;;;;;;;21.93;74.29;101026.81;5068525;28;20031;-78
2023/10/14 09:05:16;;;;;;;27.20;8.00;;;;;;;21.88;74.69;101034.72;5069177;28;20032;-77
2023/10/14 09:07:51;;;;;;;22.35;6.10;;;;;;;21.91;74.33;101027.00;5069520;28;20099;-75
2023/10/14 09:10:19;;;;;;;11.90;5.63;;;;;;;21.89;72.93;101023.63;5051539;28;20036;-75
2023/10/14 09:12:57;;;;;;;15.15;5.30;;;;;;;21.91;72.81;101027.00;5072563;28;20020;-76
2023/10/14 09:15:27;;;;;;;13.25;5.30;;;;;;;21.94;72.51;101020.28;5073068;28;20021;-74
2023/10/14 09:17:56;;;;;;;17.33;5.63;;;;;;;21.76;73.70;101011.56;5073050;28;20031;-76
2023/10/14 09:20:34;;;;;;;15.32;5.85;;;;;;;21.76;73.57;100995.13;5072747;28;20127;-76
2023/10/14 09:23:27;;;;;;;14.75;5.32;;;;;;;21.85;73.11;101016.78;5072741;28;20032;-75
2023/10/14 09:25:55;;;;;;;21.42;6.15;;;;;;;21.92;73.40;101005.94;5072846;28;20031;-75
2023/10/14 09:28:27;;;;;;;27.85;7.60;;;;;;;21.94;73.94;101010.19;5072245;28;20480;-75
2023/10/14 09:30:57;;;;;;;18.60;5.03;;;;;;;21.90;73.73;100991.56;5056679;28;20493;-75
2023/10/14 09:33:27;;;;;;;17.35;5.13;;;;;;;21.98;74.37;101017.00;5052691;28;20567;-75
2023/10/14 09:35:58;;;;;;;11.40;4.85;;;;;;;21.93;73.96;101013.97;5053272;28;20055;-75
2023/10/14 09:38:25;;;;;;;10.98;6.07;;;;;;;22.03;73.65;100997.25;5052583;28;20033;-77
2023/10/14 09:41:04;;;;;;;30.98;5.82;;;;;;;22.20;73.68;100999.56;5052171;28;20033;-75
2023/10/14 09:43:32;;;;;;;17.77;6.30;;;;;;;22.21;72.75;100978.50;5052354;28;20029;-76
2023/10/14 09:46:03;;;;;;;24.25;6.47;;;;;;;22.41;72.72;100989.72;5052447;28;20025;-77
2023/10/14 09:48:31;;;;;;;18.60;5.35;;;;;;;22.42;71.72;100984.03;5052160;28;20032;-75
2023/10/14 09:51:00;;;;;;;17.58;4.97;;;;;;;22.36;70.82;100965.63;5052693;28;20499;-75
2023/10/14 09:53:28;;;;;;;15.15;3.55;;;;;;;22.22;68.42;100958.31;5052638;28;20060;-76
2023/10/14 09:55:57;;;;;;;27.90;4.90;;;;;;;22.28;70.19;100960.28;5052372;28;20071;-77
2023/10/14 09:58:26;;;;;;;19.25;5.70;;;;;;;22.18;70.40;100970.69;5052763;28;20083;-75
2023/10/14 10:00:52;;;;;;;53.53;10.95;;;;;;;22.27;71.83;100961.31;5052396;28;20127;-77
2023/10/14 10:03:21;;;;;;;13.93;4.32;;;;;;;22.46;71.44;100971.66;5034660;28;20108;-75
2023/10/14 10:06:16;;;;;;;21.75;5.88;;;;;;;22.20;70.96;100938.44;5052108;28;20040;-76
2023/10/14 10:09:17;;;;;;;14.35;6.65;;;;;;;22.39;71.27;100959.75;5052075;28;20025;-76
2023/10/14 10:11:46;;;;;;;12.48;5.35;;;;;;;22.54;71.50;100955.06;5052595;28;20025;-75
2023/10/14 10:14:12;;;;;;;29.38;5.97;;;;;;;22.60;70.92;100939.72;5051768;28;20108;-76
2023/10/14 10:16:41;;;;;;;13.00;4.68;;;;;;;22.76;69.41;100954.09;5052031;28;20036;-76
2023/10/14 10:19:08;;;;;;;26.60;4.93;;;;;;;22.77;68.96;100942.06;5052315;28;20029;-77
2023/10/14 10:21:43;;;;;;;14.15;4.90;;;;;;;22.64;69.36;100947.38;5052100;28;20099;-78
2023/10/14 10:24:34;;;;;;;13.75;5.13;;;;;;;22.47;70.28;100945.09;5051862;28;20111;-76
2023/10/14 10:27:03;;;;;;;24.73;5.32;;;;;;;22.39;70.44;100940.56;5004136;28;20501;-77
2023/10/14 10:29:30;;;;;;;21.67;5.28;;;;;;;22.45;69.73;100920.59;5052032;28;20029;-74
2023/10/14 10:32:09;;;;;;;21.80;5.05;;;;;;;22.66;69.37;100928.00;5051687;28;20107;-76
2023/10/14 10:34:54;;;;;;;20.33;4.93;;;;;;;22.73;67.51;100924.31;5051683;28;20024;-76
2023/10/14 10:37:20;;;;;;;29.67;5.35;;;;;;;22.74;68.15;100920.53;5051664;28;20564;-73
2023/10/14 10:39:50;;;;;;;27.95;5.03;;;;;;;22.95;68.49;100924.28;5052516;28;20113;-78
2023/10/14 10:42:16;;;;;;;15.85;4.90;;;;;;;23.10;67.79;100919.56;5051621;28;20025;-77
2023/10/14 10:44:43;;;;;;;35.70;5.95;;;;;;;23.18;67.33;100908.41;5051226;28;20025;-75
2023/10/14 10:47:12;;;;;;;13.63;5.03;;;;;;;23.20;66.82;100909.09;5051482;28;20021;-76
2023/10/14 10:49:56;;;;;;;25.55;5.63;;;;;;;23.06;66.53;100891.66;5051937;28;20049;-75
2023/10/14 10:52:24;;;;;;;23.67;5.93;;;;;;;23.05;67.13;100897.38;5051920;28;20083;-74
2023/10/14 10:54:54;;;;;;;11.45;4.45;;;;;;;23.06;67.03;100896.28;5051652;28;20033;-76
2023/10/14 10:57:19;;;;;;;13.18;5.03;;;;;;;23.08;67.17;100888.72;5051689;28;20142;-75
2023/10/14 10:59:46;;;;;;;10.10;4.25;;;;;;;23.01;67.44;100887.81;5051244;28;20473;-76
2023/10/14 11:02:18;;;;;;;18.95;5.40;;;;;;;22.99;66.55;100889.94;5051335;28;20056;-74
2023/10/14 11:04:45;;;;;;;41.38;7.38;;;;;;;22.90;67.08;100874.66;5051363;28;20028;-75
2023/10/14 11:07:11;;;;;;;14.77;4.63;;;;;;;22.77;67.61;100873.50;5032227;28;20412;-76
2023/10/14 11:09:39;;;;;;;18.08;4.82;;;;;;;22.76;67.46;100871.81;5051141;28;20036;-74
2023/10/14 11:12:08;;;;;;;16.85;5.10;;;;;;;22.76;68.38;100880.03;5051182;28;20033;-76
2023/10/14 11:14:34;;;;;;;13.73;5.03;;;;;;;22.68;68.34;100855.50;5050875;28;20114;-74
2023/10/14 11:16:59;;;;;;;19.88;4.93;;;;;;;22.93;67.82;100871.53;5050898;28;20071;-75
2023/10/14 11:19:26;;;;;;;14.82;4.53;;;;;;;22.98;66.73;100861.66;5050758;28;20029;-76
2023/10/14 11:21:53;;;;;;;21.05;5.63;;;;;;;23.05;67.37;100869.94;4998976;28;20029;-76
2023/10/14 11:24:19;;;;;;;19.08;4.30;;;;;;;23.22;66.86;100871.31;5050980;28;20119;-75
2023/10/14 11:26:45;;;;;;;12.82;5.32;;;;;;;23.24;66.40;100861.81;5050187;28;20167;-75
2023/10/14 11:29:11;;;;;;;17.27;5.07;;;;;;;23.25;66.33;100862.66;5032240;28;20039;-77
2023/10/14 11:31:40;;;;;;;18.92;5.28;;;;;;;23.17;66.66;100862.84;5050938;28;20088;-78
2023/10/14 11:34:11;;;;;;;17.92;5.00;;;;;;;22.99;67.08;100857.00;5050262;28;20533;-79
2023/10/14 11:36:43;;;;;;;19.73;4.97;;;;;;;22.85;68.16;100852.44;5050616;28;20099;-77
2023/10/14 11:39:15;;;;;;;36.13;7.45;;;;;;;22.85;68.66;100858.78;5050996;28;20063;-76
2023/10/14 11:41:41;;;;;;;28.80;5.50;;;;;;;22.90;67.56;100839.00;5050743;28;20120;-78
2023/10/14 11:44:07;;;;;;;15.77;4.57;;;;;;;22.86;67.99;100843.19;5050344;28;20067;-76
2023/10/14 11:46:39;;;;;;;19.58;4.90;;;;;;;22.99;68.03;100843.28;5050110;28;20056;-79
2023/10/14 11:49:10;;;;;;;17.15;4.25;;;;;;;23.04;66.61;100843.53;5050692;28;20036;-77
2023/10/14 11:51:43;;;;;;;14.00;4.18;;;;;;;23.11;65.80;100830.72;5050578;28;20110;-76
2023/10/14 11:54:12;;;;;;;7.90;3.20;;;;;;;23.29;65.44;100831.88;5049720;28;20033;-76
2023/10/14 11:56:42;;;;;;;10.43;4.28;;;;;;;23.26;65.93;100837.78;5049798;28;20436;-77
2023/10/14 11:59:08;;;;;;;13.73;3.97;;;;;;;23.44;65.47;100822.69;5050323;28;20515;-77
2023/10/14 12:01:34;;;;;;;20.00;4.70;;;;;;;23.44;64.31;100812.56;5050528;28;20407;-77
2023/10/14 12:04:03;;;;;;;11.00;3.20;;;;;;;23.32;64.87;100816.91;5050287;28;20048;-77